sensor_id;sensor_type;location;lat;lon;timestamp;pressure;altitude;pressure_sealevel;temperature;humidity
62864;BME280;48954;59.950;11.014;2023-01-28T00:01:14;100125.34;;;-4.01;84.65
62864;BME280;48954;59.950;11.014;2023-01-28T00:03:41;100118.02;;;-3.99;85.09
62864;BME280;48954;59.950;11.014;2023-01-28T00:06:13;100118.84;;;-3.97;84.91
62864;BME280;48954;59.950;11.014;2023-01-28T00:08:39;100118.17;;;-3.93;85.27
62864;BME280;48954;59.950;11.014;2023-01-28T00:11:06;100123.73;;;-3.91;85.56
62864;BME280;48954;59.950;11.014;2023-01-28T00:13:33;100132.30;;;-3.89;85.26
62864;BME280;48954;59.950;11.014;2023-01-28T00:16:02;100132.20;;;-3.86;85.11
62864;BME280;48954;59.950;11.014;2023-01-28T00:18:29;100127.39;;;-3.84;85.33
62864;BME280;48954;59.950;11.014;2023-01-28T00:23:23;100123.65;;;-3.82;85.06
62864;BME280;48954;59.950;11.014;2023-01-28T00:25:50;100120.24;;;-3.83;84.98
62864;BME280;48954;59.950;11.014;2023-01-28T00:28:16;100117.94;;;-3.83;84.83
62864;BME280;48954;59.950;11.014;2023-01-28T00:30:41;100116.14;;;-3.85;84.91
62864;BME280;48954;59.950;11.014;2023-01-28T00:33:07;100113.73;;;-3.84;84.88
62864;BME280;48954;59.950;11.014;2023-01-28T00:35:33;100119.77;;;-3.81;85.34
62864;BME280;48954;59.950;11.014;2023-01-28T00:37:59;100103.45;;;-3.80;85.27
62864;BME280;48954;59.950;11.014;2023-01-28T00:40:25;100088.25;;;-3.79;85.36
62864;BME280;48954;59.950;11.014;2023-01-28T00:42:52;100079.86;;;-3.80;85.28
62864;BME280;48954;59.950;11.014;2023-01-28T00:45:18;100070.25;;;-3.79;85.18
62864;BME280;48954;59.950;11.014;2023-01-28T00:47:44;100074.83;;;-3.78;85.43
62864;BME280;48954;59.950;11.014;2023-01-28T00:50:11;100079.11;;;-3.80;85.22
62864;BME280;48954;59.950;11.014;2023-01-28T00:52:37;100084.00;;;-3.80;85.37
62864;BME280;48954;59.950;11.014;2023-01-28T00:55:03;100081.96;;;-3.79;85.46
62864;BME280;48954;59.950;11.014;2023-01-28T00:57:29;100074.77;;;-3.79;85.39
62864;BME280;48954;59.950;11.014;2023-01-28T00:59:55;100076.86;;;-3.79;85.47
62864;BME280;48954;59.950;11.014;2023-01-28T01:02:22;100088.91;;;-3.78;85.27
62864;BME280;48954;59.950;11.014;2023-01-28T01:04:48;100088.59;;;-3.78;85.75
62864;BME280;48954;59.950;11.014;2023-01-28T01:07:13;100089.13;;;-3.76;85.35
62864;BME280;48954;59.950;11.014;2023-01-28T01:09:39;100080.48;;;-3.74;85.59
62864;BME280;48954;59.950;11.014;2023-01-28T01:12:05;100086.70;;;-3.71;85.64
62864;BME280;48954;59.950;11.014;2023-01-28T01:14:31;100080.42;;;-3.71;85.43
62864;BME280;48954;59.950;11.014;2023-01-28T01:16:57;100067.69;;;-3.68;85.59
62864;BME280;48954;59.950;11.014;2023-01-28T01:19:23;100050.39;;;-3.68;85.43
62864;BME280;48954;59.950;11.014;2023-01-28T01:21:48;100040.81;;;-3.68;85.73
62864;BME280;48954;59.950;11.014;2023-01-28T01:24:17;100025.27;;;-3.68;85.40
62864;BME280;48954;59.950;11.014;2023-01-28T01:26:43;100018.59;;;-3.71;85.15
62864;BME280;48954;59.950;11.014;2023-01-28T01:29:09;100016.88;;;-3.77;85.48
62864;BME280;48954;59.950;11.014;2023-01-28T01:31:34;100029.05;;;-3.82;85.11
62864;BME280;48954;59.950;11.014;2023-01-28T01:34:00;100032.34;;;-3.86;85.33
62864;BME280;48954;59.950;11.014;2023-01-28T01:36:26;100029.80;;;-3.89;85.31
62864;BME280;48954;59.950;11.014;2023-01-28T01:38:53;100020.71;;;-3.91;85.52
62864;BME280;48954;59.950;11.014;2023-01-28T01:41:26;100016.55;;;-3.94;85.32
62864;BME280;48954;59.950;11.014;2023-01-28T01:43:57;100010.55;;;-3.97;85.29
62864;BME280;48954;59.950;11.014;2023-01-28T01:48:56;100014.99;;;-3.99;85.29
62864;BME280;48954;59.950;11.014;2023-01-28T01:51:29;100008.12;;;-3.99;85.15
62864;BME280;48954;59.950;11.014;2023-01-28T01:53:59;100002.05;;;-4.00;85.29
62864;BME280;48954;59.950;11.014;2023-01-28T01:56:30;99995.05;;;-3.99;85.19
62864;BME280;48954;59.950;11.014;2023-01-28T01:58:59;99995.23;;;-3.99;85.61
62864;BME280;48954;59.950;11.014;2023-01-28T02:01:28;99997.27;;;-3.98;85.33
62864;BME280;48954;59.950;11.014;2023-01-28T02:04:21;100002.05;;;-3.99;85.29
62864;BME280;48954;59.950;11.014;2023-01-28T02:06:48;99988.56;;;-3.99;85.20
62864;BME280;48954;59.950;11.014;2023-01-28T02:09:27;99986.30;;;-4.00;85.23
62864;BME280;48954;59.950;11.014;2023-01-28T02:11:58;99989.19;;;-4.01;85.17
62864;BME280;48954;59.950;11.014;2023-01-28T02:14:27;99987.31;;;-4.00;85.27
62864;BME280;48954;59.950;11.014;2023-01-28T02:16:54;99971.90;;;-3.99;85.34
62864;BME280;48954;59.950;11.014;2023-01-28T02:19:21;99962.56;;;-3.98;85.39
62864;BME280;48954;59.950;11.014;2023-01-28T02:24:42;99956.67;;;-3.95;85.43
62864;BME280;48954;59.950;11.014;2023-01-28T02:32:39;99949.77;;;-3.92;85.25
62864;BME280;48954;59.950;11.014;2023-01-28T02:35:15;99942.36;;;-3.92;85.37
62864;BME280;48954;59.950;11.014;2023-01-28T02:37:45;99942.99;;;-3.92;85.61
62864;BME280;48954;59.950;11.014;2023-01-28T02:40:19;99934.02;;;-3.94;85.24
62864;BME280;48954;59.950;11.014;2023-01-28T02:42:47;99937.92;;;-3.95;85.10
62864;BME280;48954;59.950;11.014;2023-01-28T02:45:22;99924.75;;;-3.96;85.84
62864;BME280;48954;59.950;11.014;2023-01-28T02:47:50;99923.83;;;-3.97;85.44
62864;BME280;48954;59.950;11.014;2023-01-28T02:50:18;99939.05;;;-3.95;85.72
62864;BME280;48954;59.950;11.014;2023-01-28T03:01:22;99960.51;;;-3.84;85.69
62864;BME280;48954;59.950;11.014;2023-01-28T03:06:54;99949.91;;;-3.85;85.47
62864;BME280;48954;59.950;11.014;2023-01-28T03:09:23;99947.42;;;-3.86;85.27
62864;BME280;48954;59.950;11.014;2023-01-28T03:12:06;99944.20;;;-3.86;85.16
62864;BME280;48954;59.950;11.014;2023-01-28T03:14:34;99923.30;;;-3.86;85.32
62864;BME280;48954;59.950;11.014;2023-01-28T03:17:03;99906.85;;;-3.85;85.11
62864;BME280;48954;59.950;11.014;2023-01-28T03:19:30;99895.08;;;-3.86;85.41
62864;BME280;48954;59.950;11.014;2023-01-28T03:21:57;99894.25;;;-3.88;85.27
62864;BME280;48954;59.950;11.014;2023-01-28T03:24:29;99895.29;;;-3.92;85.26
62864;BME280;48954;59.950;11.014;2023-01-28T03:27:01;99894.75;;;-3.98;85.22
62864;BME280;48954;59.950;11.014;2023-01-28T03:29:31;99902.48;;;-4.02;85.23
62864;BME280;48954;59.950;11.014;2023-01-28T03:31:59;99901.48;;;-4.05;84.99
62864;BME280;48954;59.950;11.014;2023-01-28T03:34:26;99895.92;;;-4.08;85.40
62864;BME280;48954;59.950;11.014;2023-01-28T03:36:53;99908.04;;;-4.12;85.03
62864;BME280;48954;59.950;11.014;2023-01-28T03:39:27;99907.75;;;-4.16;85.18
62864;BME280;48954;59.950;11.014;2023-01-28T03:41:57;99907.02;;;-4.17;85.48
62864;BME280;48954;59.950;11.014;2023-01-28T03:44:24;99915.76;;;-4.18;85.14
62864;BME280;48954;59.950;11.014;2023-01-28T03:46:50;99918.70;;;-4.19;85.48
62864;BME280;48954;59.950;11.014;2023-01-28T03:49:17;99908.64;;;-4.20;85.30
62864;BME280;48954;59.950;11.014;2023-01-28T03:51:42;99914.22;;;-4.22;85.21
62864;BME280;48954;59.950;11.014;2023-01-28T03:54:09;99908.83;;;-4.23;85.38
62864;BME280;48954;59.950;11.014;2023-01-28T03:56:35;99902.59;;;-4.25;85.26
62864;BME280;48954;59.950;11.014;2023-01-28T03:59:00;99893.39;;;-4.28;85.31
62864;BME280;48954;59.950;11.014;2023-01-28T04:01:26;99886.77;;;-4.31;85.24
62864;BME280;48954;59.950;11.014;2023-01-28T04:03:52;99881.96;;;-4.35;85.04
62864;BME280;48954;59.950;11.014;2023-01-28T04:06:18;99877.48;;;-4.39;85.07
62864;BME280;48954;59.950;11.014;2023-01-28T04:08:44;99879.48;;;-4.41;85.28
62864;BME280;48954;59.950;11.014;2023-01-28T04:11:10;99885.19;;;-4.43;85.36
62864;BME280;48954;59.950;11.014;2023-01-28T04:13:36;99886.41;;;-4.45;85.41
62864;BME280;48954;59.950;11.014;2023-01-28T04:16:02;99888.65;;;-4.47;85.23
62864;BME280;48954;59.950;11.014;2023-01-28T04:18:28;99892.64;;;-4.50;85.33
62864;BME280;48954;59.950;11.014;2023-01-28T04:20:53;99900.53;;;-4.49;85.63
62864;BME280;48954;59.950;11.014;2023-01-28T04:23:19;99899.02;;;-4.50;85.23
62864;BME280;48954;59.950;11.014;2023-01-28T04:25:49;99891.29;;;-4.51;85.37
62864;BME280;48954;59.950;11.014;2023-01-28T04:28:15;99888.70;;;-4.52;85.18
62864;BME280;48954;59.950;11.014;2023-01-28T04:30:41;99901.30;;;-4.53;85.18
62864;BME280;48954;59.950;11.014;2023-01-28T04:33:07;99898.47;;;-4.55;85.23
62864;BME280;48954;59.950;11.014;2023-01-28T04:35:34;99891.48;;;-4.57;85.18
62864;BME280;48954;59.950;11.014;2023-01-28T04:38:00;99891.12;;;-4.59;85.45
62864;BME280;48954;59.950;11.014;2023-01-28T04:40:26;99901.94;;;-4.62;85.23
62864;BME280;48954;59.950;11.014;2023-01-28T04:42:55;99911.23;;;-4.65;85.42
62864;BME280;48954;59.950;11.014;2023-01-28T04:45:22;99897.85;;;-4.63;85.48
62864;BME280;48954;59.950;11.014;2023-01-28T04:47:48;99891.04;;;-4.62;85.53
62864;BME280;48954;59.950;11.014;2023-01-28T04:50:14;99899.77;;;-4.59;85.74
62864;BME280;48954;59.950;11.014;2023-01-28T04:52:40;99896.73;;;-4.56;85.81
62864;BME280;48954;59.950;11.014;2023-01-28T04:55:06;99892.17;;;-4.54;85.68
62864;BME280;48954;59.950;11.014;2023-01-28T04:57:32;99895.30;;;-4.54;85.78
62864;BME280;48954;59.950;11.014;2023-01-28T04:59:58;99893.79;;;-4.55;85.63
62864;BME280;48954;59.950;11.014;2023-01-28T05:02:24;99882.30;;;-4.55;85.47
62864;BME280;48954;59.950;11.014;2023-01-28T05:04:50;99880.95;;;-4.57;85.33
62864;BME280;48954;59.950;11.014;2023-01-28T05:07:17;99872.31;;;-4.61;85.02
62864;BME280;48954;59.950;11.014;2023-01-28T05:09:42;99876.16;;;-4.63;85.54
62864;BME280;48954;59.950;11.014;2023-01-28T05:12:08;99880.79;;;-4.62;85.75
62864;BME280;48954;59.950;11.014;2023-01-28T05:14:34;99879.00;;;-4.63;85.62
62864;BME280;48954;59.950;11.014;2023-01-28T05:17:00;99885.46;;;-4.62;85.32
62864;BME280;48954;59.950;11.014;2023-01-28T05:19:26;99886.20;;;-4.62;85.50
62864;BME280;48954;59.950;11.014;2023-01-28T05:21:52;99892.80;;;-4.63;85.49
62864;BME280;48954;59.950;11.014;2023-01-28T05:24:17;99891.71;;;-4.65;85.28
62864;BME280;48954;59.950;11.014;2023-01-28T05:26:43;99899.11;;;-4.67;85.70
62864;BME280;48954;59.950;11.014;2023-01-28T05:29:09;99903.65;;;-4.70;85.63
62864;BME280;48954;59.950;11.014;2023-01-28T05:31:35;99910.17;;;-4.73;85.26
62864;BME280;48954;59.950;11.014;2023-01-28T05:34:01;99917.81;;;-4.75;85.70
62864;BME280;48954;59.950;11.014;2023-01-28T05:36:26;99918.49;;;-4.77;85.44
62864;BME280;48954;59.950;11.014;2023-01-28T05:38:52;99924.65;;;-4.79;85.51
62864;BME280;48954;59.950;11.014;2023-01-28T05:41:18;99920.52;;;-4.81;85.21
62864;BME280;48954;59.950;11.014;2023-01-28T05:43:44;99914.06;;;-4.83;85.38
62864;BME280;48954;59.950;11.014;2023-01-28T05:46:10;99911.52;;;-4.85;85.51
62864;BME280;48954;59.950;11.014;2023-01-28T05:48:37;99910.80;;;-4.86;85.59
62864;BME280;48954;59.950;11.014;2023-01-28T05:51:03;99903.53;;;-4.84;85.62
62864;BME280;48954;59.950;11.014;2023-01-28T05:53:29;99916.11;;;-4.80;86.14
62864;BME280;48954;59.950;11.014;2023-01-28T05:55:55;99886.95;;;-4.76;85.95
62864;BME280;48954;59.950;11.014;2023-01-28T05:58:21;99887.17;;;-4.71;86.20
62864;BME280;48954;59.950;11.014;2023-01-28T06:00:47;99908.77;;;-4.67;86.00
62864;BME280;48954;59.950;11.014;2023-01-28T06:03:13;99919.98;;;-4.66;85.93
62864;BME280;48954;59.950;11.014;2023-01-28T06:05:38;99920.64;;;-4.64;86.09
62864;BME280;48954;59.950;11.014;2023-01-28T06:08:05;99926.48;;;-4.65;85.71
62864;BME280;48954;59.950;11.014;2023-01-28T06:10:31;99937.29;;;-4.65;85.61
62864;BME280;48954;59.950;11.014;2023-01-28T06:12:57;99927.48;;;-4.62;85.79
62864;BME280;48954;59.950;11.014;2023-01-28T06:15:23;99922.52;;;-4.60;85.93
62864;BME280;48954;59.950;11.014;2023-01-28T06:17:48;99919.04;;;-4.58;85.81
62864;BME280;48954;59.950;11.014;2023-01-28T06:20:14;99909.70;;;-4.60;85.62
62864;BME280;48954;59.950;11.014;2023-01-28T06:22:40;99907.26;;;-4.61;85.57
62864;BME280;48954;59.950;11.014;2023-01-28T06:25:06;99890.48;;;-4.64;85.31
62864;BME280;48954;59.950;11.014;2023-01-28T06:27:32;99881.61;;;-4.68;85.33
62864;BME280;48954;59.950;11.014;2023-01-28T06:29:59;99882.17;;;-4.72;85.17
62864;BME280;48954;59.950;11.014;2023-01-28T06:32:25;99890.68;;;-4.74;85.65
62864;BME280;48954;59.950;11.014;2023-01-28T06:34:51;99882.96;;;-4.73;85.57
62864;BME280;48954;59.950;11.014;2023-01-28T06:37:17;99890.42;;;-4.66;86.15
62864;BME280;48954;59.950;11.014;2023-01-28T06:39:42;99893.91;;;-4.59;86.03
62864;BME280;48954;59.950;11.014;2023-01-28T06:42:08;99887.84;;;-4.52;86.06
62864;BME280;48954;59.950;11.014;2023-01-28T06:44:34;99892.08;;;-4.48;86.00
62864;BME280;48954;59.950;11.014;2023-01-28T06:47:00;99892.59;;;-4.45;85.82
62864;BME280;48954;59.950;11.014;2023-01-28T06:49:26;99897.81;;;-4.42;85.76
62864;BME280;48954;59.950;11.014;2023-01-28T06:51:51;99894.52;;;-4.41;85.68
62864;BME280;48954;59.950;11.014;2023-01-28T06:54:17;99894.91;;;-4.41;85.38
62864;BME280;48954;59.950;11.014;2023-01-28T06:56:43;99890.98;;;-4.40;85.52
62864;BME280;48954;59.950;11.014;2023-01-28T06:59:10;99892.19;;;-4.38;85.35
62864;BME280;48954;59.950;11.014;2023-01-28T07:01:36;99898.48;;;-4.38;85.23
62864;BME280;48954;59.950;11.014;2023-01-28T07:04:03;99904.42;;;-4.39;85.24
62864;BME280;48954;59.950;11.014;2023-01-28T07:06:31;99905.98;;;-4.38;85.45
62864;BME280;48954;59.950;11.014;2023-01-28T07:08:56;99906.80;;;-4.37;85.34
62864;BME280;48954;59.950;11.014;2023-01-28T07:11:22;99911.15;;;-4.37;85.25
62864;BME280;48954;59.950;11.014;2023-01-28T07:13:48;99899.29;;;-4.37;85.34
62864;BME280;48954;59.950;11.014;2023-01-28T07:16:14;99901.88;;;-4.36;85.33
62864;BME280;48954;59.950;11.014;2023-01-28T07:18:40;99903.14;;;-4.38;84.89
62864;BME280;48954;59.950;11.014;2023-01-28T07:21:06;99907.78;;;-4.41;84.97
62864;BME280;48954;59.950;11.014;2023-01-28T07:23:31;99915.79;;;-4.44;84.99
62864;BME280;48954;59.950;11.014;2023-01-28T07:26:03;99920.48;;;-4.47;84.90
62864;BME280;48954;59.950;11.014;2023-01-28T07:28:29;99928.02;;;-4.50;85.32
62864;BME280;48954;59.950;11.014;2023-01-28T07:30:55;99926.17;;;-4.52;85.03
62864;BME280;48954;59.950;11.014;2023-01-28T07:33:21;99932.92;;;-4.53;85.27
62864;BME280;48954;59.950;11.014;2023-01-28T07:35:47;99938.73;;;-4.54;85.12
62864;BME280;48954;59.950;11.014;2023-01-28T07:38:13;99933.45;;;-4.56;85.22
62864;BME280;48954;59.950;11.014;2023-01-28T07:40:39;99933.02;;;-4.58;85.31
62864;BME280;48954;59.950;11.014;2023-01-28T07:43:05;99928.80;;;-4.60;85.38
62864;BME280;48954;59.950;11.014;2023-01-28T07:45:31;99927.79;;;-4.59;85.29
62864;BME280;48954;59.950;11.014;2023-01-28T07:48:00;99925.75;;;-4.59;85.24
62864;BME280;48954;59.950;11.014;2023-01-28T07:50:29;99927.70;;;-4.57;85.23
62864;BME280;48954;59.950;11.014;2023-01-28T07:52:55;99923.77;;;-4.57;85.19
62864;BME280;48954;59.950;11.014;2023-01-28T07:55:21;99924.42;;;-4.57;85.17
62864;BME280;48954;59.950;11.014;2023-01-28T07:57:49;99927.86;;;-4.57;84.96
62864;BME280;48954;59.950;11.014;2023-01-28T08:00:15;99931.24;;;-4.57;85.34
62864;BME280;48954;59.950;11.014;2023-01-28T08:02:41;99926.56;;;-4.58;85.17
62864;BME280;48954;59.950;11.014;2023-01-28T08:05:07;99920.11;;;-4.59;85.36
62864;BME280;48954;59.950;11.014;2023-01-28T08:07:33;99920.86;;;-4.59;85.22
62864;BME280;48954;59.950;11.014;2023-01-28T08:09:59;99917.66;;;-4.57;85.18
62864;BME280;48954;59.950;11.014;2023-01-28T08:12:25;99921.44;;;-4.54;85.28
62864;BME280;48954;59.950;11.014;2023-01-28T08:14:50;99917.17;;;-4.50;85.49
62864;BME280;48954;59.950;11.014;2023-01-28T08:17:16;99911.00;;;-4.45;85.24
62864;BME280;48954;59.950;11.014;2023-01-28T08:19:42;99910.33;;;-4.40;85.40
62864;BME280;48954;59.950;11.014;2023-01-28T08:22:08;99917.77;;;-4.36;85.42
62864;BME280;48954;59.950;11.014;2023-01-28T08:24:33;99907.39;;;-4.31;85.56
62864;BME280;48954;59.950;11.014;2023-01-28T08:26:59;99912.94;;;-4.28;85.18
62864;BME280;48954;59.950;11.014;2023-01-28T08:29:25;99923.86;;;-4.25;84.84
62864;BME280;48954;59.950;11.014;2023-01-28T08:31:51;99929.40;;;-4.24;85.29
62864;BME280;48954;59.950;11.014;2023-01-28T08:34:16;99923.79;;;-4.20;84.99
62864;BME280;48954;59.950;11.014;2023-01-28T08:36:43;99928.55;;;-4.17;84.89
62864;BME280;48954;59.950;11.014;2023-01-28T08:39:09;99926.67;;;-4.12;84.87
62864;BME280;48954;59.950;11.014;2023-01-28T08:41:35;99924.88;;;-4.09;85.24
62864;BME280;48954;59.950;11.014;2023-01-28T08:44:01;99931.61;;;-4.08;84.90
62864;BME280;48954;59.950;11.014;2023-01-28T08:46:26;99938.23;;;-4.07;84.70
62864;BME280;48954;59.950;11.014;2023-01-28T08:48:52;99939.78;;;-4.07;84.91
62864;BME280;48954;59.950;11.014;2023-01-28T08:51:18;99939.98;;;-4.09;84.60
62864;BME280;48954;59.950;11.014;2023-01-28T08:53:44;99945.55;;;-4.11;84.76
62864;BME280;48954;59.950;11.014;2023-01-28T08:56:10;99948.11;;;-4.12;84.67
62864;BME280;48954;59.950;11.014;2023-01-28T08:58:35;99957.17;;;-4.14;84.48
62864;BME280;48954;59.950;11.014;2023-01-28T09:01:05;99961.70;;;-4.13;84.87
62864;BME280;48954;59.950;11.014;2023-01-28T09:03:31;99962.89;;;-4.13;84.63
62864;BME280;48954;59.950;11.014;2023-01-28T09:06:03;99963.77;;;-4.10;84.55
62864;BME280;48954;59.950;11.014;2023-01-28T09:08:41;99967.77;;;-4.08;84.44
62864;BME280;48954;59.950;11.014;2023-01-28T09:11:06;99965.23;;;-4.08;84.83
62864;BME280;48954;59.950;11.014;2023-01-28T09:13:32;99957.92;;;-4.08;84.80
62864;BME280;48954;59.950;11.014;2023-01-28T09:15:58;99956.52;;;-4.10;84.68
62864;BME280;48954;59.950;11.014;2023-01-28T09:18:25;99959.17;;;-4.13;84.60
62864;BME280;48954;59.950;11.014;2023-01-28T09:20:50;99958.95;;;-4.14;84.57
62864;BME280;48954;59.950;11.014;2023-01-28T09:23:17;99957.63;;;-4.12;84.50
62864;BME280;48954;59.950;11.014;2023-01-28T09:25:44;99958.65;;;-4.12;84.71
62864;BME280;48954;59.950;11.014;2023-01-28T09:28:09;99954.35;;;-4.12;84.45
62864;BME280;48954;59.950;11.014;2023-01-28T09:30:46;99950.11;;;-4.11;84.50
62864;BME280;48954;59.950;11.014;2023-01-28T09:33:11;99947.15;;;-4.06;84.62
62864;BME280;48954;59.950;11.014;2023-01-28T09:35:38;99950.64;;;-3.97;84.46
62864;BME280;48954;59.950;11.014;2023-01-28T09:38:04;99947.53;;;-3.88;84.51
62864;BME280;48954;59.950;11.014;2023-01-28T09:40:34;99941.80;;;-3.76;84.84
62864;BME280;48954;59.950;11.014;2023-01-28T09:43:25;99946.05;;;-3.61;84.94
62864;BME280;48954;59.950;11.014;2023-01-28T09:45:57;99943.71;;;-3.44;85.05
62864;BME280;48954;59.950;11.014;2023-01-28T09:48:29;99935.21;;;-3.33;84.83
62864;BME280;48954;59.950;11.014;2023-01-28T09:50:58;99931.19;;;-3.30;84.28
62864;BME280;48954;59.950;11.014;2023-01-28T09:53:30;99935.83;;;-3.29;83.98
62864;BME280;48954;59.950;11.014;2023-01-28T09:56:08;99932.91;;;-3.31;83.87
62864;BME280;48954;59.950;11.014;2023-01-28T09:58:37;99932.66;;;-3.35;83.48
62864;BME280;48954;59.950;11.014;2023-01-28T10:12:04;99959.80;;;-2.98;83.60
62864;BME280;48954;59.950;11.014;2023-01-28T10:14:49;99949.05;;;-2.94;83.57
62864;BME280;48954;59.950;11.014;2023-01-28T10:17:44;99962.38;;;-2.87;83.43
62864;BME280;48954;59.950;11.014;2023-01-28T10:22:39;99956.72;;;-2.80;83.33
62864;BME280;48954;59.950;11.014;2023-01-28T10:25:17;99953.98;;;-2.77;83.31
62864;BME280;48954;59.950;11.014;2023-01-28T10:27:44;99958.41;;;-2.75;83.50
62864;BME280;48954;59.950;11.014;2023-01-28T10:30:22;99953.88;;;-2.77;83.02
62864;BME280;48954;59.950;11.014;2023-01-28T10:32:56;99946.97;;;-2.81;83.12
62864;BME280;48954;59.950;11.014;2023-01-28T10:35:24;99941.44;;;-2.76;83.56
62864;BME280;48954;59.950;11.014;2023-01-28T10:37:53;99944.85;;;-2.59;83.24
62864;BME280;48954;59.950;11.014;2023-01-28T10:40:22;99944.42;;;-2.35;83.29
62864;BME280;48954;59.950;11.014;2023-01-28T10:42:47;99932.45;;;-1.87;82.62
62864;BME280;48954;59.950;11.014;2023-01-28T10:45:22;99917.13;;;-1.48;82.58
62864;BME280;48954;59.950;11.014;2023-01-28T10:47:53;99908.02;;;-1.24;81.89
62864;BME280;48954;59.950;11.014;2023-01-28T10:50:25;99902.25;;;-1.38;81.52
62864;BME280;48954;59.950;11.014;2023-01-28T10:53:00;99902.88;;;-1.24;81.26
62864;BME280;48954;59.950;11.014;2023-01-28T10:55:27;99902.14;;;-0.69;81.15
62864;BME280;48954;59.950;11.014;2023-01-28T10:57:57;99898.39;;;0.55;79.83
62864;BME280;48954;59.950;11.014;2023-01-28T11:00:28;99892.56;;;1.39;78.53
62864;BME280;48954;59.950;11.014;2023-01-28T11:02:56;99884.46;;;1.73;77.57
62864;BME280;48954;59.950;11.014;2023-01-28T11:05:25;99875.30;;;1.54;77.64
62864;BME280;48954;59.950;11.014;2023-01-28T11:08:23;99873.15;;;2.10;76.59
62864;BME280;48954;59.950;11.014;2023-01-28T11:10:48;99869.23;;;3.19;74.46
62864;BME280;48954;59.950;11.014;2023-01-28T11:13:27;99864.52;;;3.16;73.76
62864;BME280;48954;59.950;11.014;2023-01-28T11:16:14;99851.20;;;2.76;74.90
62864;BME280;48954;59.950;11.014;2023-01-28T11:19:00;99848.89;;;2.69;74.62
62864;BME280;48954;59.950;11.014;2023-01-28T11:21:30;99860.30;;;2.27;74.22
62864;BME280;48954;59.950;11.014;2023-01-28T11:23:59;99858.66;;;2.03;74.63
62864;BME280;48954;59.950;11.014;2023-01-28T11:26:31;99854.10;;;1.91;74.93
62864;BME280;48954;59.950;11.014;2023-01-28T11:28:58;99837.60;;;2.00;75.14
62864;BME280;48954;59.950;11.014;2023-01-28T11:31:25;99842.44;;;2.10;75.14
62864;BME280;48954;59.950;11.014;2023-01-28T11:34:01;99837.94;;;2.60;74.38
62864;BME280;48954;59.950;11.014;2023-01-28T11:36:33;99830.48;;;3.14;72.69
62864;BME280;48954;59.950;11.014;2023-01-28T11:39:19;99823.23;;;2.71;72.74
62864;BME280;48954;59.950;11.014;2023-01-28T11:41:48;99806.41;;;2.11;73.48
62864;BME280;48954;59.950;11.014;2023-01-28T11:44:21;99809.91;;;1.66;73.61
62864;BME280;48954;59.950;11.014;2023-01-28T12:01:44;99823.13;;;0.46;75.54
62864;BME280;48954;59.950;11.014;2023-01-28T12:08:19;99814.61;;;0.52;75.41
62864;BME280;48954;59.950;11.014;2023-01-28T12:13:54;99810.33;;;0.59;75.24
62864;BME280;48954;59.950;11.014;2023-01-28T12:16:50;99807.89;;;0.55;74.89
62864;BME280;48954;59.950;11.014;2023-01-28T12:24:43;99809.11;;;0.38;74.84
62864;BME280;48954;59.950;11.014;2023-01-28T12:30:28;99801.16;;;0.32;75.14
62864;BME280;48954;59.950;11.014;2023-01-28T12:33:14;99807.66;;;0.27;75.02
62864;BME280;48954;59.950;11.014;2023-01-28T12:39:06;99812.24;;;0.20;75.12
62864;BME280;48954;59.950;11.014;2023-01-28T12:41:46;99818.09;;;0.20;75.33
62864;BME280;48954;59.950;11.014;2023-01-28T12:44:37;99818.80;;;0.24;75.41
62864;BME280;48954;59.950;11.014;2023-01-28T12:47:19;99814.83;;;0.30;75.17
62864;BME280;48954;59.950;11.014;2023-01-28T12:50:10;99812.67;;;0.34;75.40
62864;BME280;48954;59.950;11.014;2023-01-28T12:52:57;99805.38;;;0.38;75.11
62864;BME280;48954;59.950;11.014;2023-01-28T12:56:02;99798.92;;;0.42;74.65
62864;BME280;48954;59.950;11.014;2023-01-28T12:58:57;99795.43;;;0.45;74.84
62864;BME280;48954;59.950;11.014;2023-01-28T13:01:56;99792.98;;;0.46;74.58
62864;BME280;48954;59.950;11.014;2023-01-28T13:04:53;99784.17;;;0.50;74.45
62864;BME280;48954;59.950;11.014;2023-01-28T13:08:00;99781.05;;;0.52;74.45
62864;BME280;48954;59.950;11.014;2023-01-28T13:10:46;99781.88;;;0.53;74.32
62864;BME280;48954;59.950;11.014;2023-01-28T13:13:47;99781.15;;;0.55;74.27
62864;BME280;48954;59.950;11.014;2023-01-28T13:16:30;99784.27;;;0.56;74.15
62864;BME280;48954;59.950;11.014;2023-01-28T13:28:04;99793.63;;;0.53;74.08
62864;BME280;48954;59.950;11.014;2023-01-28T13:30:46;99792.03;;;0.52;74.07
62864;BME280;48954;59.950;11.014;2023-01-28T13:36:30;99793.77;;;0.55;74.30
62864;BME280;48954;59.950;11.014;2023-01-28T13:39:03;99793.88;;;0.59;73.95
62864;BME280;48954;59.950;11.014;2023-01-28T13:41:47;99802.75;;;0.64;74.13
62864;BME280;48954;59.950;11.014;2023-01-28T13:44:30;99795.09;;;0.69;74.08
62864;BME280;48954;59.950;11.014;2023-01-28T13:47:45;99791.33;;;0.70;74.05
62864;BME280;48954;59.950;11.014;2023-01-28T13:50:04;99786.46;;;0.75;73.91
62864;BME280;48954;59.950;11.014;2023-01-28T13:52:42;99784.27;;;0.77;73.98
62864;BME280;48954;59.950;11.014;2023-01-28T13:57:43;99774.19;;;0.77;73.84
62864;BME280;48954;59.950;11.014;2023-01-28T14:01:01;99769.64;;;0.74;73.60
62864;BME280;48954;59.950;11.014;2023-01-28T14:07:02;99758.39;;;0.62;73.82
62864;BME280;48954;59.950;11.014;2023-01-28T14:09:49;99760.36;;;0.55;73.76
62864;BME280;48954;59.950;11.014;2023-01-28T14:20:16;99762.59;;;0.24;73.91
62864;BME280;48954;59.950;11.014;2023-01-28T14:22:44;99766.48;;;0.16;73.86
62864;BME280;48954;59.950;11.014;2023-01-28T14:27:59;99761.18;;;-0.05;74.06
62864;BME280;48954;59.950;11.014;2023-01-28T14:30:49;99768.48;;;-0.11;74.18
62864;BME280;48954;59.950;11.014;2023-01-28T14:33:18;99773.31;;;-0.16;74.39
62864;BME280;48954;59.950;11.014;2023-01-28T14:35:46;99766.91;;;-0.19;74.36
62864;BME280;48954;59.950;11.014;2023-01-28T14:38:17;99762.02;;;-0.23;74.34
62864;BME280;48954;59.950;11.014;2023-01-28T14:40:51;99750.95;;;-0.26;74.72
62864;BME280;48954;59.950;11.014;2023-01-28T14:43:24;99745.48;;;-0.30;74.33
62864;BME280;48954;59.950;11.014;2023-01-28T14:46:06;99744.86;;;-0.32;74.27